sensor_id;sensor_type;location;lat;lon;timestamp;pressure;altitude;pressure_sealevel;temperature;humidity
73245;BME280;61460;41.158;-73.238;2022-11-20T00:01:09;101899.08;;;22.86;29.71
73245;BME280;61460;41.158;-73.238;2022-11-20T00:03:38;101888.50;;;22.88;29.50
73245;BME280;61460;41.158;-73.238;2022-11-20T00:06:10;101884.47;;;22.91;29.85
73245;BME280;61460;41.158;-73.238;2022-11-20T00:08:40;101885.42;;;22.92;29.82
73245;BME280;61460;41.158;-73.238;2022-11-20T00:11:12;101878.16;;;22.59;29.49
73245;BME280;61460;41.158;-73.238;2022-11-20T00:13:41;101874.58;;;22.57;31.88
73245;BME280;61460;41.158;-73.238;2022-11-20T00:16:15;101868.39;;;22.61;32.63
73245;BME280;61460;41.158;-73.238;2022-11-20T00:18:42;101863.32;;;22.90;31.47
73245;BME280;61460;41.158;-73.238;2022-11-20T00:21:15;101856.73;;;23.06;32.34
73245;BME280;61460;41.158;-73.238;2022-11-20T00:23:43;101856.09;;;23.03;31.55
73245;BME280;61460;41.158;-73.238;2022-11-20T00:26:16;101856.55;;;23.05;32.51
73245;BME280;61460;41.158;-73.238;2022-11-20T00:28:49;101855.90;;;23.08;32.25
73245;BME280;61460;41.158;-73.238;2022-11-20T00:31:16;101859.11;;;23.08;32.03
73245;BME280;61460;41.158;-73.238;2022-11-20T00:33:46;101857.34;;;23.06;31.86
73245;BME280;61460;41.158;-73.238;2022-11-20T00:36:19;101860.37;;;22.91;30.97
73245;BME280;61460;41.158;-73.238;2022-11-20T00:38:51;101860.17;;;22.66;32.38
73245;BME280;61460;41.158;-73.238;2022-11-20T00:41:17;101856.23;;;22.52;36.87
73245;BME280;61460;41.158;-73.238;2022-11-20T00:43:49;101856.42;;;22.79;35.51
73245;BME280;61460;41.158;-73.238;2022-11-20T00:46:23;101858.42;;;22.81;36.99
73245;BME280;61460;41.158;-73.238;2022-11-20T00:48:50;101857.28;;;23.02;35.85
73245;BME280;61460;41.158;-73.238;2022-11-20T00:51:22;101858.07;;;23.13;35.40
73245;BME280;61460;41.158;-73.238;2022-11-20T00:53:51;101854.45;;;23.15;36.04
73245;BME280;61460;41.158;-73.238;2022-11-20T00:56:21;101855.42;;;23.21;35.97
73245;BME280;61460;41.158;-73.238;2022-11-20T00:58:52;101851.57;;;23.27;35.69
73245;BME280;61460;41.158;-73.238;2022-11-20T01:01:24;101846.71;;;23.32;35.38
73245;BME280;61460;41.158;-73.238;2022-11-20T01:03:55;101839.22;;;23.19;33.63
73245;BME280;61460;41.158;-73.238;2022-11-20T01:06:25;101847.23;;;23.07;34.22
73245;BME280;61460;41.158;-73.238;2022-11-20T01:08:56;101847.16;;;23.27;35.07
73245;BME280;61460;41.158;-73.238;2022-11-20T01:11:27;101842.59;;;23.33;35.07
73245;BME280;61460;41.158;-73.238;2022-11-20T01:13:57;101836.57;;;23.33;35.14
73245;BME280;61460;41.158;-73.238;2022-11-20T01:16:28;101841.19;;;23.34;35.53
73245;BME280;61460;41.158;-73.238;2022-11-20T01:18:58;101840.65;;;23.36;35.51
73245;BME280;61460;41.158;-73.238;2022-11-20T01:21:29;101844.88;;;23.39;35.41
73245;BME280;61460;41.158;-73.238;2022-11-20T01:23:59;101837.59;;;23.38;35.40
73245;BME280;61460;41.158;-73.238;2022-11-20T01:26:31;101832.21;;;23.33;34.59
73245;BME280;61460;41.158;-73.238;2022-11-20T01:29:00;101825.40;;;23.10;34.68
73245;BME280;61460;41.158;-73.238;2022-11-20T01:31:32;101830.84;;;23.17;34.79
73245;BME280;61460;41.158;-73.238;2022-11-20T01:34:03;101830.34;;;23.26;35.33
73245;BME280;61460;41.158;-73.238;2022-11-20T01:36:33;101827.73;;;23.32;35.12
73245;BME280;61460;41.158;-73.238;2022-11-20T01:39:05;101833.10;;;23.25;35.49
73245;BME280;61460;41.158;-73.238;2022-11-20T01:41:34;101834.25;;;23.37;35.53
73245;BME280;61460;41.158;-73.238;2022-11-20T01:44:04;101821.85;;;23.40;35.37
73245;BME280;61460;41.158;-73.238;2022-11-20T01:46:35;101818.39;;;23.09;35.01
73245;BME280;61460;41.158;-73.238;2022-11-20T01:49:09;101814.92;;;23.13;36.40
73245;BME280;61460;41.158;-73.238;2022-11-20T01:51:40;101810.98;;;23.30;35.53
73245;BME280;61460;41.158;-73.238;2022-11-20T01:54:09;101809.62;;;23.42;35.73
73245;BME280;61460;41.158;-73.238;2022-11-20T01:56:38;101804.40;;;23.48;35.41
73245;BME280;61460;41.158;-73.238;2022-11-20T01:59:08;101804.48;;;23.48;35.73
73245;BME280;61460;41.158;-73.238;2022-11-20T02:01:38;101805.17;;;23.47;35.62
73245;BME280;61460;41.158;-73.238;2022-11-20T02:04:09;101803.33;;;23.48;35.57
73245;BME280;61460;41.158;-73.238;2022-11-20T02:06:42;101803.36;;;23.35;35.27
73245;BME280;61460;41.158;-73.238;2022-11-20T02:09:10;101808.78;;;23.05;35.47
73245;BME280;61460;41.158;-73.238;2022-11-20T02:11:40;101806.77;;;23.12;35.78
73245;BME280;61460;41.158;-73.238;2022-11-20T02:14:11;101799.50;;;23.26;35.41
73245;BME280;61460;41.158;-73.238;2022-11-20T02:16:46;101795.54;;;23.39;35.46
73245;BME280;61460;41.158;-73.238;2022-11-20T02:19:21;101789.12;;;23.41;36.09
73245;BME280;61460;41.158;-73.238;2022-11-20T02:21:46;101789.90;;;23.48;36.03
73245;BME280;61460;41.158;-73.238;2022-11-20T02:24:14;101789.50;;;23.55;35.90
73245;BME280;61460;41.158;-73.238;2022-11-20T02:26:48;101780.23;;;23.61;35.83
73245;BME280;61460;41.158;-73.238;2022-11-20T02:29:17;101772.54;;;23.17;36.32
73245;BME280;61460;41.158;-73.238;2022-11-20T02:31:45;101771.05;;;23.16;36.03
73245;BME280;61460;41.158;-73.238;2022-11-20T02:34:16;101771.09;;;23.43;36.29
73245;BME280;61460;41.158;-73.238;2022-11-20T02:36:48;101767.05;;;23.51;36.24
73245;BME280;61460;41.158;-73.238;2022-11-20T02:39:19;101766.84;;;23.59;36.21
73245;BME280;61460;41.158;-73.238;2022-11-20T02:41:48;101766.29;;;23.57;36.30
73245;BME280;61460;41.158;-73.238;2022-11-20T02:44:19;101762.89;;;23.63;36.30
73245;BME280;61460;41.158;-73.238;2022-11-20T02:46:49;101754.81;;;23.50;35.37
73245;BME280;61460;41.158;-73.238;2022-11-20T02:49:20;101749.00;;;23.36;36.17
73245;BME280;61460;41.158;-73.238;2022-11-20T02:51:51;101742.55;;;23.34;36.38
73245;BME280;61460;41.158;-73.238;2022-11-20T02:54:22;101744.04;;;23.53;36.45
73245;BME280;61460;41.158;-73.238;2022-11-20T02:56:52;101742.10;;;23.63;36.36
73245;BME280;61460;41.158;-73.238;2022-11-20T02:59:23;101734.39;;;23.70;36.30
73245;BME280;61460;41.158;-73.238;2022-11-20T03:01:53;101726.97;;;23.72;35.81
73245;BME280;61460;41.158;-73.238;2022-11-20T03:04:25;101724.86;;;23.53;35.84
73245;BME280;61460;41.158;-73.238;2022-11-20T03:06:54;101718.27;;;23.47;35.85
73245;BME280;61460;41.158;-73.238;2022-11-20T03:09:25;101710.56;;;23.60;36.02
73245;BME280;61460;41.158;-73.238;2022-11-20T03:11:56;101704.88;;;23.66;36.27
73245;BME280;61460;41.158;-73.238;2022-11-20T03:14:26;101697.91;;;23.71;36.04
73245;BME280;61460;41.158;-73.238;2022-11-20T03:16:57;101694.78;;;23.74;36.04
73245;BME280;61460;41.158;-73.238;2022-11-20T03:19:28;101691.46;;;23.70;35.69
73245;BME280;61460;41.158;-73.238;2022-11-20T03:21:58;101687.09;;;23.53;35.75
73245;BME280;61460;41.158;-73.238;2022-11-20T03:24:28;101680.52;;;23.55;35.60
73245;BME280;61460;41.158;-73.238;2022-11-20T03:26:59;101679.31;;;23.64;35.93
73245;BME280;61460;41.158;-73.238;2022-11-20T03:29:30;101676.25;;;23.69;36.03
73245;BME280;61460;41.158;-73.238;2022-11-20T03:32:00;101674.46;;;23.69;36.19
73245;BME280;61460;41.158;-73.238;2022-11-20T03:34:31;101663.07;;;23.70;35.86
73245;BME280;61460;41.158;-73.238;2022-11-20T03:37:02;101653.63;;;23.49;35.80
73245;BME280;61460;41.158;-73.238;2022-11-20T03:39:32;101652.65;;;23.51;36.09
73245;BME280;61460;41.158;-73.238;2022-11-20T03:42:03;101654.35;;;23.66;36.30
73245;BME280;61460;41.158;-73.238;2022-11-20T03:44:33;101652.43;;;23.68;36.32
73245;BME280;61460;41.158;-73.238;2022-11-20T03:47:04;101644.43;;;23.74;36.29
73245;BME280;61460;41.158;-73.238;2022-11-20T03:49:35;101625.01;;;23.72;35.89
73245;BME280;61460;41.158;-73.238;2022-11-20T03:52:05;101616.96;;;23.52;35.76
73245;BME280;61460;41.158;-73.238;2022-11-20T03:54:36;101616.67;;;23.58;35.27
73245;BME280;61460;41.158;-73.238;2022-11-20T03:57:07;101619.90;;;23.66;35.94
73245;BME280;61460;41.158;-73.238;2022-11-20T03:59:37;101620.87;;;23.76;36.20
73245;BME280;61460;41.158;-73.238;2022-11-20T04:02:08;101620.43;;;23.85;36.24
73245;BME280;61460;41.158;-73.238;2022-11-20T04:04:39;101618.28;;;23.73;35.74
73245;BME280;61460;41.158;-73.238;2022-11-20T04:07:09;101614.19;;;23.51;36.01
73245;BME280;61460;41.158;-73.238;2022-11-20T04:09:40;101608.93;;;23.46;36.56
73245;BME280;61460;41.158;-73.238;2022-11-20T04:12:10;101605.55;;;23.38;37.27
73245;BME280;61460;41.158;-73.238;2022-11-20T04:14:41;101596.09;;;23.53;37.16
73245;BME280;61460;41.158;-73.238;2022-11-20T04:17:12;101592.53;;;23.37;37.41
73245;BME280;61460;41.158;-73.238;2022-11-20T04:19:43;101584.70;;;23.44;37.15
73245;BME280;61460;41.158;-73.238;2022-11-20T04:22:13;101578.16;;;23.04;37.00
73245;BME280;61460;41.158;-73.238;2022-11-20T04:24:44;101575.27;;;23.10;37.59
73245;BME280;61460;41.158;-73.238;2022-11-20T04:27:14;101568.92;;;23.11;37.41
73245;BME280;61460;41.158;-73.238;2022-11-20T04:29:45;101567.05;;;23.17;37.38
73245;BME280;61460;41.158;-73.238;2022-11-20T04:32:16;101566.01;;;23.20;37.37
73245;BME280;61460;41.158;-73.238;2022-11-20T04:34:46;101562.51;;;23.21;37.22
73245;BME280;61460;41.158;-73.238;2022-11-20T04:37:17;101556.65;;;23.20;37.24
73245;BME280;61460;41.158;-73.238;2022-11-20T04:39:47;101555.91;;;23.26;37.18
73245;BME280;61460;41.158;-73.238;2022-11-20T04:42:18;101559.16;;;23.03;37.20
73245;BME280;61460;41.158;-73.238;2022-11-20T04:44:49;101555.93;;;22.74;37.47
73245;BME280;61460;41.158;-73.238;2022-11-20T04:47:19;101555.49;;;22.87;37.47
73245;BME280;61460;41.158;-73.238;2022-11-20T04:49:50;101545.77;;;22.83;37.69
73245;BME280;61460;41.158;-73.238;2022-11-20T04:52:21;101539.54;;;22.96;37.31
73245;BME280;61460;41.158;-73.238;2022-11-20T04:54:51;101539.69;;;22.98;37.24
73245;BME280;61460;41.158;-73.238;2022-11-20T04:57:23;101537.27;;;22.97;37.19
73245;BME280;61460;41.158;-73.238;2022-11-20T04:59:52;101533.70;;;22.94;37.26
73245;BME280;61460;41.158;-73.238;2022-11-20T05:02:23;101523.24;;;22.97;36.65
73245;BME280;61460;41.158;-73.238;2022-11-20T05:04:54;101521.31;;;22.62;37.36
73245;BME280;61460;41.158;-73.238;2022-11-20T05:07:24;101522.15;;;22.73;37.67
73245;BME280;61460;41.158;-73.238;2022-11-20T05:09:55;101514.89;;;22.81;37.14
73245;BME280;61460;41.158;-73.238;2022-11-20T05:12:26;101507.48;;;22.81;37.43
73245;BME280;61460;41.158;-73.238;2022-11-20T05:14:57;101503.93;;;22.82;37.40
73245;BME280;61460;41.158;-73.238;2022-11-20T05:17:27;101495.59;;;22.83;37.47
73245;BME280;61460;41.158;-73.238;2022-11-20T05:19:57;101486.37;;;22.74;37.67
73245;BME280;61460;41.158;-73.238;2022-11-20T05:22:28;101480.02;;;22.78;37.49
73245;BME280;61460;41.158;-73.238;2022-11-20T05:24:58;101484.77;;;22.63;37.48
73245;BME280;61460;41.158;-73.238;2022-11-20T05:27:30;101477.59;;;22.53;37.76
73245;BME280;61460;41.158;-73.238;2022-11-20T05:30:00;101478.87;;;22.61;37.55
73245;BME280;61460;41.158;-73.238;2022-11-20T05:32:31;101475.30;;;22.55;37.83
73245;BME280;61460;41.158;-73.238;2022-11-20T05:35:01;101469.34;;;22.57;37.84
73245;BME280;61460;41.158;-73.238;2022-11-20T05:37:32;101464.08;;;22.59;37.86
73245;BME280;61460;41.158;-73.238;2022-11-20T05:40:03;101459.88;;;22.51;38.00
73245;BME280;61460;41.158;-73.238;2022-11-20T05:42:33;101460.40;;;22.51;38.04
73245;BME280;61460;41.158;-73.238;2022-11-20T05:45:05;101459.50;;;22.49;37.53
73245;BME280;61460;41.158;-73.238;2022-11-20T05:47:34;101454.69;;;22.61;37.38
73245;BME280;61460;41.158;-73.238;2022-11-20T05:50:05;101464.64;;;22.58;37.87
73245;BME280;61460;41.158;-73.238;2022-11-20T05:52:37;101456.23;;;22.53;37.98
73245;BME280;61460;41.158;-73.238;2022-11-20T05:55:07;101459.09;;;22.48;38.10
73245;BME280;61460;41.158;-73.238;2022-11-20T05:57:37;101451.46;;;22.52;37.80
73245;BME280;61460;41.158;-73.238;2022-11-20T06:00:09;101436.32;;;22.61;37.70
73245;BME280;61460;41.158;-73.238;2022-11-20T06:02:38;101430.63;;;22.56;37.98
73245;BME280;61460;41.158;-73.238;2022-11-20T06:05:09;101427.64;;;22.45;37.97
73245;BME280;61460;41.158;-73.238;2022-11-20T06:07:39;101423.42;;;22.36;38.07
73245;BME280;61460;41.158;-73.238;2022-11-20T06:10:10;101422.05;;;22.46;38.04
73245;BME280;61460;41.158;-73.238;2022-11-20T06:12:41;101422.74;;;22.39;38.24
73245;BME280;61460;41.158;-73.238;2022-11-20T06:15:11;101417.86;;;22.44;38.09
73245;BME280;61460;41.158;-73.238;2022-11-20T06:17:42;101414.09;;;22.40;38.16
73245;BME280;61460;41.158;-73.238;2022-11-20T06:20:13;101407.64;;;22.35;38.40
73245;BME280;61460;41.158;-73.238;2022-11-20T06:22:43;101396.66;;;22.32;38.45
73245;BME280;61460;41.158;-73.238;2022-11-20T06:25:14;101384.71;;;22.18;38.60
73245;BME280;61460;41.158;-73.238;2022-11-20T06:27:44;101388.03;;;22.17;38.41
73245;BME280;61460;41.158;-73.238;2022-11-20T06:30:15;101392.44;;;22.34;38.55
73245;BME280;61460;41.158;-73.238;2022-11-20T06:32:46;101391.28;;;22.29;38.44
73245;BME280;61460;41.158;-73.238;2022-11-20T06:35:16;101397.44;;;22.34;38.45
73245;BME280;61460;41.158;-73.238;2022-11-20T06:37:47;101391.13;;;22.36;38.42
73245;BME280;61460;41.158;-73.238;2022-11-20T06:40:18;101395.74;;;22.33;38.72
73245;BME280;61460;41.158;-73.238;2022-11-20T06:42:48;101401.66;;;22.41;38.61
73245;BME280;61460;41.158;-73.238;2022-11-20T06:45:19;101394.16;;;22.37;38.46
73245;BME280;61460;41.158;-73.238;2022-11-20T06:47:50;101381.31;;;22.34;38.47
73245;BME280;61460;41.158;-73.238;2022-11-20T06:50:20;101382.19;;;22.38;38.50
73245;BME280;61460;41.158;-73.238;2022-11-20T06:52:51;101382.80;;;22.41;38.78
73245;BME280;61460;41.158;-73.238;2022-11-20T06:55:22;101378.51;;;22.51;38.62
73245;BME280;61460;41.158;-73.238;2022-11-20T06:57:52;101374.18;;;22.53;38.70
73245;BME280;61460;41.158;-73.238;2022-11-20T07:00:24;101374.48;;;22.51;38.82
73245;BME280;61460;41.158;-73.238;2022-11-20T07:02:53;101379.34;;;22.24;39.47
73245;BME280;61460;41.158;-73.238;2022-11-20T07:05:24;101382.27;;;22.47;38.84
73245;BME280;61460;41.158;-73.238;2022-11-20T07:07:56;101381.21;;;22.33;38.86
73245;BME280;61460;41.158;-73.238;2022-11-20T07:10:26;101381.56;;;22.47;38.62
73245;BME280;61460;41.158;-73.238;2022-11-20T07:12:56;101385.97;;;22.49;38.82
73245;BME280;61460;41.158;-73.238;2022-11-20T07:15:27;101390.41;;;22.50;38.73
73245;BME280;61460;41.158;-73.238;2022-11-20T07:17:58;101401.91;;;22.57;38.78
73245;BME280;61460;41.158;-73.238;2022-11-20T07:20:28;101403.84;;;22.32;39.31
73245;BME280;61460;41.158;-73.238;2022-11-20T07:22:59;101401.34;;;22.54;38.82
73245;BME280;61460;41.158;-73.238;2022-11-20T07:25:29;101405.31;;;22.58;39.12
73245;BME280;61460;41.158;-73.238;2022-11-20T07:28:01;101402.32;;;22.40;39.04
73245;BME280;61460;41.158;-73.238;2022-11-20T07:30:30;101406.56;;;22.37;38.95
73245;BME280;61460;41.158;-73.238;2022-11-20T07:33:01;101405.32;;;22.55;38.90
73245;BME280;61460;41.158;-73.238;2022-11-20T07:35:32;101404.05;;;22.62;38.64
73245;BME280;61460;41.158;-73.238;2022-11-20T07:38:02;101391.06;;;22.57;38.84
73245;BME280;61460;41.158;-73.238;2022-11-20T07:40:33;101387.77;;;22.68;38.71
73245;BME280;61460;41.158;-73.238;2022-11-20T07:43:04;101384.28;;;22.71;38.50
73245;BME280;61460;41.158;-73.238;2022-11-20T07:45:34;101387.32;;;22.72;38.48
73245;BME280;61460;41.158;-73.238;2022-11-20T07:48:05;101390.02;;;22.61;38.47
73245;BME280;61460;41.158;-73.238;2022-11-20T07:50:35;101391.04;;;22.68;38.30
73245;BME280;61460;41.158;-73.238;2022-11-20T07:53:06;101382.09;;;22.59;38.38
73245;BME280;61460;41.158;-73.238;2022-11-20T07:55:37;101380.90;;;22.69;38.63
73245;BME280;61460;41.158;-73.238;2022-11-20T07:58:07;101383.95;;;22.70;38.62
73245;BME280;61460;41.158;-73.238;2022-11-20T08:00:38;101385.05;;;22.68;38.49
73245;BME280;61460;41.158;-73.238;2022-11-20T08:03:10;101389.07;;;22.58;38.73
73245;BME280;61460;41.158;-73.238;2022-11-20T08:05:40;101384.37;;;22.52;38.64
73245;BME280;61460;41.158;-73.238;2022-11-20T08:08:10;101384.41;;;22.39;38.89
73245;BME280;61460;41.158;-73.238;2022-11-20T08:10:41;101386.93;;;22.27;39.42
73245;BME280;61460;41.158;-73.238;2022-11-20T08:13:11;101387.87;;;22.49;38.85
73245;BME280;61460;41.158;-73.238;2022-11-20T08:15:48;101389.74;;;22.56;39.69
73245;BME280;61460;41.158;-73.238;2022-11-20T08:18:13;101384.30;;;22.56;39.55
73245;BME280;61460;41.158;-73.238;2022-11-20T08:20:44;101380.02;;;22.60;39.05
73245;BME280;61460;41.158;-73.238;2022-11-20T08:23:14;101374.28;;;22.54;38.98
73245;BME280;61460;41.158;-73.238;2022-11-20T08:25:49;101373.81;;;22.54;38.64
73245;BME280;61460;41.158;-73.238;2022-11-20T08:28:16;101368.91;;;22.43;38.73
73245;BME280;61460;41.158;-73.238;2022-11-20T08:30:46;101364.40;;;22.58;38.91
73245;BME280;61460;41.158;-73.238;2022-11-20T08:33:16;101367.74;;;22.62;38.72
73245;BME280;61460;41.158;-73.238;2022-11-20T08:35:47;101368.67;;;22.59;38.75
73245;BME280;61460;41.158;-73.238;2022-11-20T08:38:18;101375.01;;;22.52;39.12
73245;BME280;61460;41.158;-73.238;2022-11-20T08:40:48;101374.26;;;22.56;39.10
73245;BME280;61460;41.158;-73.238;2022-11-20T08:43:19;101373.93;;;22.46;38.82
73245;BME280;61460;41.158;-73.238;2022-11-20T08:45:50;101377.55;;;22.39;38.91
73245;BME280;61460;41.158;-73.238;2022-11-20T08:48:20;101379.33;;;22.46;39.05
73245;BME280;61460;41.158;-73.238;2022-11-20T08:50:51;101378.14;;;22.56;38.83
73245;BME280;61460;41.158;-73.238;2022-11-20T08:53:21;101379.00;;;22.68;38.83
73245;BME280;61460;41.158;-73.238;2022-11-20T08:55:52;101375.89;;;22.81;38.46
73245;BME280;61460;41.158;-73.238;2022-11-20T08:58:23;101374.90;;;22.67;38.74
73245;BME280;61460;41.158;-73.238;2022-11-20T09:00:53;101377.60;;;22.53;38.93
73245;BME280;61460;41.158;-73.238;2022-11-20T09:03:24;101367.01;;;22.51;38.72
73245;BME280;61460;41.158;-73.238;2022-11-20T09:05:57;101368.90;;;22.54;38.62
73245;BME280;61460;41.158;-73.238;2022-11-20T09:08:25;101369.25;;;22.58;39.08
73245;BME280;61460;41.158;-73.238;2022-11-20T09:10:57;101373.48;;;22.46;39.15
73245;BME280;61460;41.158;-73.238;2022-11-20T09:13:28;101372.37;;;22.50;39.15
73245;BME280;61460;41.158;-73.238;2022-11-20T09:16:00;101367.13;;;22.43;39.36
73245;BME280;61460;41.158;-73.238;2022-11-20T09:18:29;101372.80;;;22.42;39.43
73245;BME280;61460;41.158;-73.238;2022-11-20T09:20:59;101375.10;;;22.37;38.94
73245;BME280;61460;41.158;-73.238;2022-11-20T09:23:32;101374.58;;;22.16;39.34
73245;BME280;61460;41.158;-73.238;2022-11-20T09:26:02;101368.50;;;22.32;39.20
73245;BME280;61460;41.158;-73.238;2022-11-20T09:28:30;101366.15;;;22.44;39.00
73245;BME280;61460;41.158;-73.238;2022-11-20T09:31:05;101360.89;;;22.52;39.23
73245;BME280;61460;41.158;-73.238;2022-11-20T09:33:32;101360.40;;;22.57;39.20
73245;BME280;61460;41.158;-73.238;2022-11-20T09:36:03;101363.47;;;22.44;39.22
73245;BME280;61460;41.158;-73.238;2022-11-20T09:38:33;101361.24;;;22.44;39.26
73245;BME280;61460;41.158;-73.238;2022-11-20T09:41:05;101364.64;;;22.45;38.72
73245;BME280;61460;41.158;-73.238;2022-11-20T09:43:45;101374.74;;;22.36;38.91
73245;BME280;61460;41.158;-73.238;2022-11-20T09:46:09;101375.59;;;22.52;39.10
73245;BME280;61460;41.158;-73.238;2022-11-20T09:48:45;101372.99;;;22.39;39.40
73245;BME280;61460;41.158;-73.238;2022-11-20T09:51:13;101374.95;;;22.31;39.82
73245;BME280;61460;41.158;-73.238;2022-11-20T09:53:46;101374.23;;;22.29;40.14
73245;BME280;61460;41.158;-73.238;2022-11-20T09:56:10;101378.74;;;22.44;39.34
73245;BME280;61460;41.158;-73.238;2022-11-20T09:58:40;101372.79;;;22.47;39.15
73245;BME280;61460;41.158;-73.238;2022-11-20T10:01:12;101376.85;;;22.46;39.07
73245;BME280;61460;41.158;-73.238;2022-11-20T10:03:48;101387.59;;;22.46;39.33
73245;BME280;61460;41.158;-73.238;2022-11-20T10:06:15;101392.52;;;22.54;40.00
73245;BME280;61460;41.158;-73.238;2022-11-20T10:08:45;101404.68;;;22.55;39.70
73245;BME280;61460;41.158;-73.238;2022-11-20T10:11:17;101407.31;;;22.52;39.78
73245;BME280;61460;41.158;-73.238;2022-11-20T10:13:48;101404.34;;;22.39;39.39
73245;BME280;61460;41.158;-73.238;2022-11-20T10:16:21;101410.08;;;22.28;39.59
73245;BME280;61460;41.158;-73.238;2022-11-20T10:18:53;101414.13;;;22.23;39.95
73245;BME280;61460;41.158;-73.238;2022-11-20T10:21:23;101407.57;;;22.50;39.32
73245;BME280;61460;41.158;-73.238;2022-11-20T10:23:58;101408.25;;;22.52;39.61
73245;BME280;61460;41.158;-73.238;2022-11-20T10:26:21;101414.26;;;22.35;39.47
73245;BME280;61460;41.158;-73.238;2022-11-20T10:28:56;101421.62;;;22.33;39.16
73245;BME280;61460;41.158;-73.238;2022-11-20T10:31:26;101426.03;;;22.39;39.31
73245;BME280;61460;41.158;-73.238;2022-11-20T10:33:47;101417.69;;;22.46;39.42
73245;BME280;61460;41.158;-73.238;2022-11-20T10:36:22;101431.84;;;22.46;39.58
73245;BME280;61460;41.158;-73.238;2022-11-20T10:38:51;101436.45;;;22.51;39.54
73245;BME280;61460;41.158;-73.238;2022-11-20T10:41:23;101423.52;;;22.55;39.57
73245;BME280;61460;41.158;-73.238;2022-11-20T10:43:53;101425.08;;;22.50;39.46
73245;BME280;61460;41.158;-73.238;2022-11-20T10:46:21;101434.23;;;22.39;39.14
73245;BME280;61460;41.158;-73.238;2022-11-20T10:48:51;101434.68;;;22.34;39.40
73245;BME280;61460;41.158;-73.238;2022-11-20T10:51:31;101426.90;;;22.47;39.23
73245;BME280;61460;41.158;-73.238;2022-11-20T10:53:58;101437.25;;;22.44;39.13
73245;BME280;61460;41.158;-73.238;2022-11-20T10:56:28;101437.21;;;22.55;39.46
73245;BME280;61460;41.158;-73.238;2022-11-20T10:59:03;101438.05;;;22.61;39.39
73245;BME280;61460;41.158;-73.238;2022-11-20T11:01:24;101447.94;;;22.51;39.37
73245;BME280;61460;41.158;-73.238;2022-11-20T11:03:55;101442.26;;;22.54;38.91
73245;BME280;61460;41.158;-73.238;2022-11-20T11:06:31;101455.14;;;22.37;39.21
73245;BME280;61460;41.158;-73.238;2022-11-20T11:09:00;101460.79;;;22.46;39.74
73245;BME280;61460;41.158;-73.238;2022-11-20T11:11:28;101458.64;;;22.46;39.59
73245;BME280;61460;41.158;-73.238;2022-11-20T11:14:05;101460.63;;;22.45;39.65
73245;BME280;61460;41.158;-73.238;2022-11-20T11:16:27;101458.78;;;22.59;39.40
73245;BME280;61460;41.158;-73.238;2022-11-20T11:19:03;101475.89;;;22.61;39.40
73245;BME280;61460;41.158;-73.238;2022-11-20T11:21:29;101483.00;;;22.37;39.26
73245;BME280;61460;41.158;-73.238;2022-11-20T11:24:01;101486.50;;;22.32;39.16
73245;BME280;61460;41.158;-73.238;2022-11-20T11:26:30;101481.89;;;22.36;39.15
73245;BME280;61460;41.158;-73.238;2022-11-20T11:29:03;101483.28;;;22.41;39.05
73245;BME280;61460;41.158;-73.238;2022-11-20T11:31:33;101483.84;;;22.53;39.30
73245;BME280;61460;41.158;-73.238;2022-11-20T11:34:05;101481.20;;;22.60;39.44
73245;BME280;61460;41.158;-73.238;2022-11-20T11:36:34;101482.44;;;22.69;39.04
73245;BME280;61460;41.158;-73.238;2022-11-20T11:39:05;101479.09;;;22.59;38.67
73245;BME280;61460;41.158;-73.238;2022-11-20T11:41:34;101485.52;;;22.44;38.84
73245;BME280;61460;41.158;-73.238;2022-11-20T11:44:14;101483.19;;;22.60;39.13
73245;BME280;61460;41.158;-73.238;2022-11-20T11:46:39;101489.65;;;22.68;40.12
73245;BME280;61460;41.158;-73.238;2022-11-20T11:49:15;101499.48;;;23.02;38.59
73245;BME280;61460;41.158;-73.238;2022-11-20T11:51:41;101489.49;;;23.12;38.36
73245;BME280;61460;41.158;-73.238;2022-11-20T11:54:15;101490.58;;;23.09;38.93
73245;BME280;61460;41.158;-73.238;2022-11-20T11:56:37;101500.22;;;22.96;38.29
73245;BME280;61460;41.158;-73.238;2022-11-20T11:59:14;101503.64;;;22.91;38.75
73245;BME280;61460;41.158;-73.238;2022-11-20T12:01:44;101513.99;;;23.24;37.90
73245;BME280;61460;41.158;-73.238;2022-11-20T12:04:16;101525.13;;;23.43;37.83
73245;BME280;61460;41.158;-73.238;2022-11-20T12:06:44;101527.18;;;23.53;37.55
73245;BME280;61460;41.158;-73.238;2022-11-20T12:09:11;101528.50;;;23.59;37.50
73245;BME280;61460;41.158;-73.238;2022-11-20T12:11:46;101532.06;;;23.64;37.51
73245;BME280;61460;41.158;-73.238;2022-11-20T12:14:17;101525.79;;;23.21;37.87
73245;BME280;61460;41.158;-73.238;2022-11-20T12:16:42;101525.86;;;23.23;37.46
73245;BME280;61460;41.158;-73.238;2022-11-20T12:19:14;101528.43;;;23.55;37.32
73245;BME280;61460;41.158;-73.238;2022-11-20T12:21:52;101533.23;;;23.73;37.13
73245;BME280;61460;41.158;-73.238;2022-11-20T12:24:29;101534.63;;;23.79;37.13
73245;BME280;61460;41.158;-73.238;2022-11-20T12:26:54;101539.00;;;23.85;37.11
73245;BME280;61460;41.158;-73.238;2022-11-20T12:29:24;101545.24;;;23.90;37.05
73245;BME280;61460;41.158;-73.238;2022-11-20T12:31:57;101545.23;;;23.65;37.21
73245;BME280;61460;41.158;-73.238;2022-11-20T12:34:29;101541.05;;;23.38;37.51
73245;BME280;61460;41.158;-73.238;2022-11-20T12:36:52;101549.33;;;23.62;37.29
73245;BME280;61460;41.158;-73.238;2022-11-20T12:39:31;101550.95;;;23.90;36.87
73245;BME280;61460;41.158;-73.238;2022-11-20T12:44:29;101567.36;;;24.06;36.84
73245;BME280;61460;41.158;-73.238;2022-11-20T12:46:56;101564.41;;;24.10;36.93
73245;BME280;61460;41.158;-73.238;2022-11-20T12:49:28;101573.42;;;24.14;36.89